Time;durP1;ratioP1;P1;durP2;ratioP2;P2;SDS_P1;SDS_P2;PMS_P1;PMS_P2;Temp;Humidity;BMP_temperature;BMP_pressure;BME280_temperature;BME280_humidity;BME280_pressure;Samples;Min_cycle;Max_cycle;Signal;HPM_P1;HPM_P2
2023/07/31 00:02:14;;;;;;;2.53;1.60;;;;;;;19.05;61.61;99181.53;4991027;28;20061;-78
2023/07/31 00:04:40;;;;;;;1.92;1.42;;;;;;;19.03;61.82;99178.16;4973704;28;20112;-78
2023/07/31 00:07:07;;;;;;;2.22;1.48;;;;;;;19.00;61.59;99175.78;4973245;28;20050;-77
2023/07/31 00:09:34;;;;;;;2.85;1.20;;;;;;;18.97;62.00;99173.44;4991164;28;20138;-78
2023/07/31 00:12:01;;;;;;;2.60;1.35;;;;;;;18.96;61.72;99174.44;4950561;28;1182183;-78
2023/07/31 00:14:27;;;;;;;2.13;1.30;;;;;;;18.94;62.06;99171.91;4991374;28;20050;-78
2023/07/31 00:16:54;;;;;;;2.03;1.30;;;;;;;18.92;62.18;99168.59;4974137;28;20050;-77
2023/07/31 00:19:20;;;;;;;2.47;1.58;;;;;;;18.91;62.54;99174.88;4991358;28;20070;-77
2023/07/31 00:21:47;;;;;;;1.88;1.50;;;;;;;18.88;62.35;99176.03;4991006;28;20058;-78
2023/07/31 00:24:13;;;;;;;5.03;1.50;;;;;;;18.86;62.40;99166.53;4990916;28;20446;-77
2023/07/31 00:26:40;;;;;;;2.05;1.52;;;;;;;18.85;62.56;99165.72;4991308;28;20086;-77
2023/07/31 00:29:07;;;;;;;1.70;1.38;;;;;;;18.83;62.73;99162.34;4991324;28;20077;-77
2023/07/31 00:31:34;;;;;;;2.17;1.60;;;;;;;18.83;62.41;99166.81;4991132;28;20833;-77
2023/07/31 00:34:00;;;;;;;3.78;1.40;;;;;;;18.81;62.47;99164.34;4991245;28;20046;-77
2023/07/31 00:36:27;;;;;;;1.75;1.40;;;;;;;18.79;62.89;99162.78;4973801;28;20058;-77
2023/07/31 00:38:53;;;;;;;1.92;1.60;;;;;;;18.75;62.45;99154.28;4990325;28;20659;-77
2023/07/31 00:41:20;;;;;;;1.77;1.42;;;;;;;18.73;63.08;99153.63;4991085;28;20074;-77
2023/07/31 00:43:46;;;;;;;1.38;1.27;;;;;;;18.71;62.94;99152.91;4991325;28;20129;-77
2023/07/31 00:46:13;;;;;;;1.52;1.42;;;;;;;18.69;63.01;99149.59;4973735;28;20141;-77
2023/07/31 00:48:40;;;;;;;2.22;1.60;;;;;;;18.67;62.69;99146.22;4991066;28;20054;-78
2023/07/31 00:51:08;;;;;;;1.55;1.35;;;;;;;18.65;63.11;99148.22;4990770;28;20051;-77
2023/07/31 00:53:35;;;;;;;1.60;1.50;;;;;;;18.62;62.97;99144.84;4991251;28;20054;-77
2023/07/31 00:56:03;;;;;;;1.63;1.20;;;;;;;18.62;62.73;99147.53;4990879;28;20520;-77
2023/07/31 00:58:29;;;;;;;1.70;1.35;;;;;;;18.60;62.72;99156.66;4990894;28;20541;-78
2023/07/31 01:00:56;;;;;;;1.95;1.50;;;;;;;18.58;63.09;99148.81;4990871;28;20573;-78
2023/07/31 01:03:23;;;;;;;2.00;1.52;;;;;;;18.57;63.38;99139.16;4990515;28;20042;-77
2023/07/31 01:06:01;;;;;;;1.60;1.50;;;;;;;18.53;64.57;99144.94;4991166;28;20058;-77
2023/07/31 01:08:58;;;;;;;1.75;1.23;;;;;;;18.52;64.57;99136.13;4990992;28;20421;-78
2023/07/31 01:11:30;;;;;;;3.22;1.98;;;;;;;18.52;64.32;99128.13;4982688;28;20059;-78
2023/07/31 01:13:58;;;;;;;5.60;1.67;;;;;;;18.52;63.79;99121.97;4990694;28;20498;-78
2023/07/31 01:16:25;;;;;;;4.35;1.60;;;;;;;18.51;63.45;99126.47;4990961;28;20069;-77
2023/07/31 01:18:52;;;;;;;1.90;1.70;;;;;;;18.51;63.58;99129.13;4972730;28;20054;-77
2023/07/31 01:21:18;;;;;;;3.33;1.60;;;;;;;18.51;63.62;99128.28;4990146;28;20502;-77
2023/07/31 01:23:58;;;;;;;1.73;1.63;;;;;;;18.46;64.87;99118.94;4973437;28;20413;-78
2023/07/31 01:26:29;;;;;;;3.75;1.90;;;;;;;18.50;64.51;99119.44;4990625;28;20422;-77
2023/07/31 01:29:03;;;;;;;1.60;1.40;;;;;;;18.50;64.47;99119.44;4973460;28;20128;-78
2023/07/31 01:31:30;;;;;;;;;;;;;;;18.51;63.52;99121.13;4991355;28;20086;-78
2023/07/31 01:34:01;;;;;;;1.77;1.20;;;;;;;18.56;63.69;99118.00;4990443;28;20468;-77
2023/07/31 01:36:30;;;;;;;1.48;1.38;;;;;;;18.55;63.26;99117.16;4990653;28;20051;-77
2023/07/31 01:39:00;;;;;;;1.40;1.27;;;;;;;18.52;64.19;99112.16;4990567;28;20054;-77
2023/07/31 01:41:27;;;;;;;2.25;1.42;;;;;;;18.52;63.46;99104.16;4973624;28;20077;-77
2023/07/31 01:43:54;;;;;;;3.42;1.23;;;;;;;18.49;63.21;99101.78;4990070;28;20062;-77
2023/07/31 01:46:20;;;;;;;1.15;1.05;;;;;;;18.47;63.42;99104.59;4990210;28;20057;-77
2023/07/31 01:48:47;;;;;;;1.48;1.30;;;;;;;18.45;63.30;99103.94;4990737;28;20534;-77
2023/07/31 01:51:13;;;;;;;2.15;1.55;;;;;;;18.42;63.31;99100.72;4976873;28;20124;-77
2023/07/31 01:53:40;;;;;;;3.55;1.38;;;;;;;18.40;63.43;99103.56;4994004;28;20058;-77
2023/07/31 01:56:06;;;;;;;2.47;1.30;;;;;;;18.39;63.89;99096.53;4994003;28;20058;-78
2023/07/31 01:58:33;;;;;;;2.25;1.40;;;;;;;18.37;63.83;99101.19;4993905;28;20054;-78
2023/07/31 02:01:00;;;;;;;1.83;1.50;;;;;;;18.36;63.83;99097.69;4994080;28;20112;-77
2023/07/31 02:03:26;;;;;;;2.65;1.50;;;;;;;18.35;64.09;99096.03;4993893;28;20125;-77
2023/07/31 02:05:54;;;;;;;1.80;1.30;;;;;;;18.35;64.00;99093.34;4993498;28;20494;-78
2023/07/31 02:08:20;;;;;;;1.83;1.45;;;;;;;18.36;64.52;99089.69;4993998;28;20050;-78
2023/07/31 02:13:31;;;;;;;1.52;1.20;;;;;;;18.38;64.17;99091.41;4997938;28;20045;-81
2023/07/31 02:15:57;;;;;;;2.47;1.67;;;;;;;18.39;64.50;99090.41;5005503;28;20058;-80
2023/07/31 02:18:24;;;;;;;1.80;1.27;;;;;;;18.39;64.50;99085.88;5013847;28;20410;-80
2023/07/31 02:20:51;;;;;;;1.48;1.20;;;;;;;18.39;64.46;99077.88;5013788;28;20061;-81
2023/07/31 02:23:19;;;;;;;3.35;1.05;;;;;;;18.38;64.36;99080.75;5012968;28;20049;-81
2023/07/31 02:25:46;;;;;;;1.48;1.10;;;;;;;18.36;64.40;99081.72;4994059;28;20053;-81
2023/07/31 02:28:13;;;;;;;1.23;0.90;;;;;;;18.36;64.36;99080.88;4976837;28;20399;-81
2023/07/31 02:30:39;;;;;;;1.27;0.88;;;;;;;18.34;64.49;99085.53;4994246;28;20125;-81
2023/07/31 02:33:06;;;;;;;1.05;0.93;;;;;;;18.32;64.81;99079.53;4993950;28;20054;-81
2023/07/31 02:35:33;;;;;;;1.25;0.70;;;;;;;18.31;64.51;99084.00;4977455;28;20134;-80
2023/07/31 02:37:59;;;;;;;1.75;0.88;;;;;;;18.29;64.57;99080.66;4994033;28;20116;-81
2023/07/31 02:40:26;;;;;;;1.23;0.70;;;;;;;18.27;64.70;99081.81;4993938;28;20522;-81
2023/07/31 02:42:52;;;;;;;0.82;0.70;;;;;;;18.25;64.78;99076.63;4994041;28;20046;-81
2023/07/31 02:45:19;;;;;;;0.88;0.60;;;;;;;18.23;65.06;99075.94;5004602;28;20054;-81
2023/07/31 02:47:46;;;;;;;0.60;0.60;;;;;;;18.21;65.23;99068.09;5013195;28;20042;-80
2023/07/31 02:50:12;;;;;;;0.82;0.50;;;;;;;18.21;65.34;99068.09;5013288;28;20642;-81
2023/07/31 02:52:39;;;;;;;0.75;0.75;;;;;;;18.20;65.29;99066.44;5013358;28;20046;-81
2023/07/31 02:55:06;;;;;;;0.50;0.50;;;;;;;18.21;65.45;99067.28;4998756;28;20077;-81
2023/07/31 02:57:33;;;;;;;1.00;0.50;;;;;;;18.20;65.13;99062.91;4993392;28;20705;-81
2023/07/31 02:59:59;;;;;;;0.75;0.50;;;;;;;18.20;65.88;99054.94;4989251;28;20049;-81
2023/07/31 03:02:26;;;;;;;0.82;0.55;;;;;;;18.19;65.70;99055.94;5012464;28;20054;-80
2023/07/31 03:04:53;;;;;;;1.77;0.50;;;;;;;18.18;65.85;99051.59;5012798;28;20556;-80
2023/07/31 03:07:19;;;;;;;2.65;0.50;;;;;;;18.19;65.84;99053.25;5012693;28;20458;-81
2023/07/31 03:09:46;;;;;;;0.40;0.40;;;;;;;18.19;65.91;99047.94;5003556;28;20050;-81
2023/07/31 03:12:13;;;;;;;0.82;0.35;;;;;;;18.20;66.07;99044.28;5004472;28;20056;-81
2023/07/31 03:14:39;;;;;;;0.40;0.40;;;;;;;18.19;65.99;99035.47;4996723;28;20042;-81
2023/07/31 03:17:06;;;;;;;1.17;0.38;;;;;;;18.21;66.24;99032.66;4992244;28;20062;-81
2023/07/31 03:19:33;;;;;;;1.13;0.40;;;;;;;18.23;66.52;99041.31;4996358;28;20050;-80
2023/07/31 03:22:00;;;;;;;1.27;0.70;;;;;;;18.24;66.58;99029.66;5012397;28;20050;-81
2023/07/31 03:24:28;;;;;;;1.10;1.00;;;;;;;18.26;66.41;99033.03;5012224;28;20052;-81
2023/07/31 03:26:54;;;;;;;2.90;1.17;;;;;;;18.28;66.84;99033.69;5011882;28;20065;-81
2023/07/31 03:29:21;;;;;;;1.33;1.10;;;;;;;18.29;66.82;99030.06;4994265;28;20050;-80
2023/07/31 03:31:50;;;;;;;5.13;2.10;;;;;;;18.31;66.82;99025.38;4972732;28;20061;-81
2023/07/31 03:34:16;;;;;;;6.35;2.72;;;;;;;18.33;66.87;99011.91;4973146;28;20051;-81
2023/07/31 03:36:44;;;;;;;6.07;3.45;;;;;;;18.34;66.97;99018.91;4972613;28;20082;-81
2023/07/31 03:39:10;;;;;;;6.45;3.60;;;;;;;18.34;67.11;99019.75;4972990;28;20061;-81
2023/07/31 03:41:37;;;;;;;7.00;3.65;;;;;;;18.36;67.30;99007.09;5002819;28;20123;-81
2023/07/31 03:44:04;;;;;;;8.40;4.28;;;;;;;18.36;67.56;99004.44;5011747;28;20050;-81
2023/07/31 03:46:30;;;;;;;12.90;5.47;;;;;;;18.39;67.67;99007.78;5011506;28;20445;-82
2023/07/31 03:48:57;;;;;;;10.00;5.28;;;;;;;18.40;67.71;99001.47;5011555;28;20060;-81
2023/07/31 03:51:24;;;;;;;10.95;5.20;;;;;;;18.42;67.74;99002.13;5000619;28;20486;-81
2023/07/31 03:53:50;;;;;;;14.85;6.45;;;;;;;18.45;68.33;99012.50;4992091;28;20161;-81
2023/07/31 03:56:17;;;;;;;12.07;5.57;;;;;;;18.46;68.27;99009.66;4974483;28;20512;-81
2023/07/31 03:58:44;;;;;;;11.80;6.82;;;;;;;18.49;68.39;99012.03;4991728;28;20537;-81
2023/07/31 04:01:10;;;;;;;11.38;6.32;;;;;;;18.51;68.01;99006.53;4997066;28;20050;-81
2023/07/31 04:03:37;;;;;;;12.15;6.32;;;;;;;18.52;68.20;99010.03;5011372;28;20042;-81
2023/07/31 04:06:03;;;;;;;11.27;6.57;;;;;;;18.53;68.59;99004.53;5011418;28;20061;-81
2023/07/31 04:08:30;;;;;;;12.85;6.50;;;;;;;18.55;68.43;99010.56;5011145;28;20057;-81
2023/07/31 04:10:57;;;;;;;17.48;7.65;;;;;;;18.57;68.38;99007.72;5009768;28;20054;-80
2023/07/31 04:13:23;;;;;;;16.83;6.93;;;;;;;18.58;68.57;99010.22;4973928;28;20050;-81
2023/07/31 04:15:50;;;;;;;14.63;7.38;;;;;;;18.60;68.69;99018.91;4991644;28;20058;-81
2023/07/31 04:18:17;;;;;;;15.80;6.75;;;;;;;18.61;68.90;99025.06;4991512;28;20054;-81
2023/07/31 04:20:44;;;;;;;12.45;6.40;;;;;;;18.61;68.73;99009.91;4974234;28;20482;-81
2023/07/31 04:23:11;;;;;;;14.23;6.45;;;;;;;18.62;68.85;99011.59;5007570;28;20042;-81
2023/07/31 04:25:38;;;;;;;15.13;5.95;;;;;;;18.62;68.70;99014.25;5010979;28;20075;-81
2023/07/31 04:28:05;;;;;;;13.45;6.28;;;;;;;18.64;68.91;99015.94;5010649;28;20050;-81
2023/07/31 04:30:31;;;;;;;11.13;6.25;;;;;;;18.62;69.01;99016.91;5011014;28;20132;-81
2023/07/31 04:32:58;;;;;;;12.63;5.78;;;;;;;18.63;68.79;99025.75;4998656;28;20058;-81
2023/07/31 04:35:25;;;;;;;10.90;5.70;;;;;;;18.62;69.11;99019.59;5001983;28;20037;-81
2023/07/31 04:37:51;;;;;;;15.68;5.57;;;;;;;18.62;69.25;99022.25;5010885;28;20112;-80
2023/07/31 04:40:18;;;;;;;9.77;5.30;;;;;;;18.61;68.93;99019.72;5010908;28;20061;-80
2023/07/31 04:42:45;;;;;;;17.08;6.20;;;;;;;18.61;69.04;99022.41;5002916;28;20046;-80
2023/07/31 04:45:11;;;;;;;12.93;6.13;;;;;;;18.59;69.44;99019.91;4991177;28;20171;-80
2023/07/31 04:47:38;;;;;;;10.43;6.07;;;;;;;18.58;69.32;99020.06;4991055;28;20133;-81
2023/07/31 04:50:05;;;;;;;12.15;5.97;;;;;;;18.57;69.43;99023.72;4991174;28;20108;-81
2023/07/31 04:52:32;;;;;;;13.35;5.88;;;;;;;18.55;69.62;99021.22;4993783;28;20419;-81
2023/07/31 04:54:58;;;;;;;11.50;5.97;;;;;;;18.53;69.42;99027.69;4993036;28;20056;-81
2023/07/31 04:57:25;;;;;;;12.65;6.53;;;;;;;18.53;69.40;99025.00;5010785;28;20049;-81
2023/07/31 04:59:51;;;;;;;15.20;6.68;;;;;;;18.51;69.64;99030.53;5010857;28;20045;-81
2023/07/31 05:02:18;;;;;;;12.60;6.38;;;;;;;18.51;69.64;99033.19;5010630;28;20482;-80
2023/07/31 05:04:45;;;;;;;12.52;6.75;;;;;;;18.51;69.73;99041.19;5007865;28;20058;-81
2023/07/31 05:07:11;;;;;;;14.45;6.57;;;;;;;18.49;69.55;99024.50;4990848;28;20490;-80
2023/07/31 05:09:39;;;;;;;19.05;6.93;;;;;;;18.50;69.64;99023.50;4990872;28;20054;-80
2023/07/31 05:12:06;;;;;;;14.23;6.85;;;;;;;18.51;69.56;99017.19;4991081;28;20054;-81
2023/07/31 05:14:32;;;;;;;14.48;6.72;;;;;;;18.52;69.89;99020.69;5003989;28;20136;-81
2023/07/31 05:16:59;;;;;;;12.15;6.38;;;;;;;18.53;69.76;99015.19;5010449;28;20405;-81
2023/07/31 05:19:26;;;;;;;17.13;7.78;;;;;;;18.54;69.51;99019.53;5010608;28;20080;-81
2023/07/31 05:21:52;;;;;;;16.58;7.47;;;;;;;18.55;69.78;99010.56;5010498;28;20046;-81
2023/07/31 05:24:19;;;;;;;16.20;6.85;;;;;;;18.56;69.67;99006.91;5008843;28;20136;-81
2023/07/31 05:26:45;;;;;;;19.08;7.43;;;;;;;18.56;69.93;99006.91;4994360;28;20054;-81
2023/07/31 05:29:12;;;;;;;13.85;6.78;;;;;;;18.57;69.68;99005.91;4994675;28;20455;-80
2023/07/31 05:31:39;;;;;;;17.92;8.10;;;;;;;18.56;69.73;99017.56;4994639;28;20061;-81
2023/07/31 05:34:05;;;;;;;18.42;7.13;;;;;;;18.57;69.44;99013.91;5006490;28;20104;-81
2023/07/31 05:36:32;;;;;;;17.23;6.85;;;;;;;18.57;69.59;99010.38;5013983;28;20050;-81
2023/07/31 05:38:59;;;;;;;15.20;6.95;;;;;;;18.58;69.33;99014.75;5013991;28;20094;-81
2023/07/31 05:41:25;;;;;;;17.90;6.45;;;;;;;18.59;69.31;99013.75;5013995;28;20471;-81
2023/07/31 05:43:52;;;;;;;18.67;7.18;;;;;;;18.59;69.63;99014.59;4998769;28;20054;-81
2023/07/31 05:46:18;;;;;;;14.38;6.45;;;;;;;18.60;69.44;99005.59;4994111;28;20058;-81
2023/07/31 05:48:45;;;;;;;14.38;6.13;;;;;;;18.61;69.49;99012.59;4994181;28;20054;-81
2023/07/31 05:51:12;;;;;;;17.17;6.43;;;;;;;18.63;69.48;99007.09;4994045;28;20725;-81
2023/07/31 05:53:40;;;;;;;18.77;7.18;;;;;;;18.64;69.13;99000.78;5004196;28;20054;-81
2023/07/31 05:56:07;;;;;;;12.07;6.35;;;;;;;18.65;69.40;99002.44;4998576;28;20054;-80
2023/07/31 05:58:34;;;;;;;19.30;7.32;;;;;;;18.65;69.04;98999.75;5011486;28;20049;-78
2023/07/31 06:01:00;;;;;;;15.27;6.93;;;;;;;18.65;69.26;98988.28;5012176;28;20058;-79
2023/07/31 06:03:27;;;;;;;18.23;7.07;;;;;;;18.65;69.02;98993.63;5006253;28;20075;-78
2023/07/31 06:05:54;;;;;;;17.58;6.18;;;;;;;18.64;69.24;98991.97;4975520;28;20051;-79
2023/07/31 06:08:20;;;;;;;13.30;6.97;;;;;;;18.63;69.31;98985.78;4993328;28;20174;-79
2023/07/31 06:10:47;;;;;;;14.35;6.97;;;;;;;18.60;68.92;98989.59;4993151;28;20058;-79
2023/07/31 06:13:14;;;;;;;13.30;6.50;;;;;;;18.59;68.87;98992.41;4994969;28;20054;-78
2023/07/31 06:15:40;;;;;;;13.75;6.05;;;;;;;18.55;69.00;98994.56;5013296;28;20050;-79
2023/07/31 06:18:07;;;;;;;13.93;5.68;;;;;;;18.54;69.16;98986.72;5013240;28;20058;-79
2023/07/31 06:20:34;;;;;;;13.00;6.40;;;;;;;18.53;69.30;98988.56;5013090;28;20056;-79
2023/07/31 06:23:01;;;;;;;16.60;6.00;;;;;;;18.50;69.36;98991.53;5013445;28;20096;-79
2023/07/31 06:25:27;;;;;;;16.08;6.30;;;;;;;18.53;69.35;98998.38;5010850;28;20560;-78
2023/07/31 06:27:54;;;;;;;13.70;5.82;;;;;;;18.51;69.70;98992.38;5013076;28;20053;-79
2023/07/31 06:30:21;;;;;;;15.48;6.97;;;;;;;18.53;69.72;99001.88;5013119;28;20043;-80
2023/07/31 06:32:47;;;;;;;11.90;6.32;;;;;;;18.56;69.92;99001.56;5012708;28;20100;-79
2023/07/31 06:35:14;;;;;;;16.95;6.25;;;;;;;18.58;69.77;98994.22;4998943;28;20044;-79
2023/07/31 06:37:43;;;;;;;13.00;5.85;;;;;;;18.60;69.62;98999.41;4992721;28;20586;-79
2023/07/31 06:40:10;;;;;;;17.60;6.70;;;;;;;18.61;69.69;99004.59;4993379;28;20054;-79
2023/07/31 06:42:37;;;;;;;13.60;6.15;;;;;;;18.63;69.38;99001.78;4993277;28;20042;-79
2023/07/31 06:45:03;;;;;;;14.13;6.18;;;;;;;18.64;69.70;99010.63;5008483;28;20054;-79
2023/07/31 06:47:30;;;;;;;14.38;6.60;;;;;;;18.65;69.41;98998.94;4995252;28;20052;-79
2023/07/31 06:49:56;;;;;;;16.73;6.05;;;;;;;18.64;69.57;98995.44;4995424;28;20222;-79
2023/07/31 06:52:23;;;;;;;17.13;6.10;;;;;;;18.66;69.67;98998.78;5012764;28;20050;-79
2023/07/31 06:55:03;;;;;;;13.32;6.18;;;;;;;18.64;70.47;98990.09;5000801;28;20096;-78
2023/07/31 06:57:30;;;;;;;15.35;6.38;;;;;;;18.68;69.56;98990.63;4992897;28;20081;-79
2023/07/31 06:59:56;;;;;;;17.00;6.40;;;;;;;18.70;69.79;98980.66;5005752;28;20061;-79
2023/07/31 07:02:23;;;;;;;15.63;6.47;;;;;;;18.71;69.30;98983.16;5012961;28;20092;-78
2023/07/31 07:04:49;;;;;;;15.55;6.10;;;;;;;18.73;69.70;98989.16;5012469;28;20059;-79
2023/07/31 07:07:16;;;;;;;14.90;6.20;;;;;;;18.74;69.81;98982.00;5012271;28;20133;-79
2023/07/31 07:09:43;;;;;;;10.27;5.65;;;;;;;18.78;69.77;98991.34;5011456;28;20482;-79
2023/07/31 07:12:10;;;;;;;15.38;6.30;;;;;;;18.80;69.57;98977.84;5012250;28;20064;-79
2023/07/31 07:14:36;;;;;;;18.33;6.18;;;;;;;18.81;69.57;98976.84;5012056;28;20391;-79
2023/07/31 07:17:03;;;;;;;13.70;5.53;;;;;;;18.81;69.70;98983.03;5012032;28;20054;-79
2023/07/31 07:19:30;;;;;;;17.73;6.13;;;;;;;18.81;69.69;98972.38;5008324;28;20097;-79
2023/07/31 07:21:57;;;;;;;12.65;5.35;;;;;;;18.83;69.49;98986.38;4999371;28;20046;-79
2023/07/31 07:24:23;;;;;;;15.90;5.85;;;;;;;18.82;69.82;98979.38;5001255;28;20554;-79
2023/07/31 07:26:50;;;;;;;12.18;5.80;;;;;;;18.83;69.69;98978.38;4991573;28;20133;-79
2023/07/31 07:29:16;;;;;;;13.55;5.18;;;;;;;18.85;69.85;98972.88;4992216;28;20050;-79
2023/07/31 07:31:43;;;;;;;9.32;4.60;;;;;;;18.84;69.88;98966.69;5010903;28;20125;-79
2023/07/31 07:34:09;;;;;;;9.77;4.90;;;;;;;18.85;69.47;98964.88;5012119;28;20120;-78
2023/07/31 07:36:37;;;;;;;15.15;5.10;;;;;;;18.84;69.80;98961.38;5011710;28;20465;-79
2023/07/31 07:39:04;;;;;;;8.18;4.38;;;;;;;18.84;69.78;98964.03;5011877;28;20060;-79
2023/07/31 07:41:31;;;;;;;10.00;5.00;;;;;;;18.84;70.00;98964.03;4997085;28;20140;-79
2023/07/31 07:43:57;;;;;;;10.75;4.97;;;;;;;18.83;69.92;98962.38;4992019;28;20137;-79
2023/07/31 07:46:24;;;;;;;12.13;4.97;;;;;;;18.83;70.10;98959.69;4974564;28;20054;-79
2023/07/31 07:48:51;;;;;;;10.95;4.78;;;;;;;18.83;70.02;98959.69;4991869;28;20060;-79
2023/07/31 07:51:17;;;;;;;11.13;4.65;;;;;;;18.83;70.25;98954.38;5001583;28;20054;-79
2023/07/31 07:53:44;;;;;;;9.20;4.45;;;;;;;18.85;70.61;98951.53;5011522;28;20776;-79
2023/07/31 07:56:10;;;;;;;7.43;4.40;;;;;;;18.85;70.67;98949.72;5011383;28;20070;-79
2023/07/31 07:58:37;;;;;;;9.20;4.25;;;;;;;18.87;70.70;98939.72;5011239;28;20053;-79
2023/07/31 08:01:03;;;;;;;9.60;4.82;;;;;;;18.91;70.68;98936.75;5006054;28;20133;-79
2023/07/31 08:03:30;;;;;;;6.72;4.18;;;;;;;18.94;70.80;98933.72;4991649;28;20050;-79
2023/07/31 08:06:00;;;;;;;9.27;3.80;;;;;;;18.95;71.59;98941.56;4991755;28;20129;-78
2023/07/31 08:08:30;;;;;;;10.32;4.00;;;;;;;18.98;71.43;98935.91;4991723;28;20057;-78
2023/07/31 08:10:57;;;;;;;9.10;3.85;;;;;;;19.03;70.74;98922.09;4992475;28;20046;-79
2023/07/31 08:13:23;;;;;;;7.32;3.50;;;;;;;19.05;71.14;98917.47;5076433;22;20050;-77
2023/07/31 08:15:50;;;;;;;6.22;3.40;;;;;;;19.10;71.21;98920.47;4974684;28;20096;-77
2023/07/31 08:18:17;;;;;;;5.50;3.00;;;;;;;19.13;71.37;98914.81;4992434;28;20047;-77
2023/07/31 08:20:44;;;;;;;5.55;3.28;;;;;;;19.17;71.52;98914.50;4992211;28;20050;-77
2023/07/31 08:23:11;;;;;;;6.18;2.75;;;;;;;19.21;71.38;98905.97;4991985;28;20049;-77
2023/07/31 08:25:38;;;;;;;9.05;2.50;;;;;;;19.25;71.71;98901.16;4991840;28;20046;-77
2023/07/31 08:28:05;;;;;;;3.90;2.13;;;;;;;19.29;71.49;98894.50;4991990;28;20057;-78
2023/07/31 08:30:36;;;;;;;3.78;1.80;;;;;;;19.33;71.58;98901.16;4992105;28;20042;-78
2023/07/31 08:33:03;;;;;;;3.03;1.88;;;;;;;19.37;71.63;98894.47;4974602;28;20074;-77
2023/07/31 08:35:29;;;;;;;2.20;1.73;;;;;;;19.40;71.49;98894.16;4991932;28;20491;-77
2023/07/31 08:37:56;;;;;;;3.17;1.65;;;;;;;19.43;71.44;98884.16;4991541;28;20047;-77
2023/07/31 08:40:23;;;;;;;2.45;1.85;;;;;;;19.46;71.30;98890.00;4991662;28;20089;-77
2023/07/31 08:42:52;;;;;;;4.25;1.70;;;;;;;19.49;71.57;98888.81;4991852;28;20058;-77
2023/07/31 08:45:20;;;;;;;2.22;1.50;;;;;;;19.52;71.95;98886.63;4991497;28;20050;-77
2023/07/31 08:47:50;;;;;;;3.63;1.80;;;;;;;19.55;72.07;98895.34;4974098;28;20046;-77
2023/07/31 08:50:21;;;;;;;1.75;1.33;;;;;;;19.58;72.05;98889.66;4991773;28;20038;-77
2023/07/31 08:52:49;;;;;;;1.67;1.45;;;;;;;19.60;71.53;98882.31;4991439;28;20128;-77
2023/07/31 08:55:16;;;;;;;1.20;1.10;;;;;;;19.62;71.48;98875.81;4974249;28;20046;-77
2023/07/31 08:57:43;;;;;;;1.20;1.08;;;;;;;19.63;71.54;98876.66;4991444;28;20051;-77
2023/07/31 09:00:11;;;;;;;1.45;1.10;;;;;;;19.64;71.49;98884.50;4993902;28;20108;-77
2023/07/31 09:02:44;;;;;;;1.27;1.10;;;;;;;19.64;71.99;98884.50;4995319;28;20133;-77
2023/07/31 09:05:11;;;;;;;;;;;;;;;19.66;71.57;98886.97;4995547;28;20499;-77
2023/07/31 09:07:38;;;;;;;0.75;0.75;;;;;;;19.73;71.18;98876.47;4994919;28;19924;-77
2023/07/31 09:10:05;;;;;;;1.10;1.00;;;;;;;19.73;71.23;98871.13;4994667;28;20050;-77
2023/07/31 09:12:31;;;;;;;1.67;0.80;;;;;;;19.73;71.51;98881.81;4995003;28;20057;-78
2023/07/31 09:14:58;;;;;;;1.00;0.82;;;;;;;19.74;71.52;98870.13;4994827;28;20141;-77
2023/07/31 09:17:36;;;;;;;1.65;1.02;;;;;;;19.73;72.25;98879.16;4994853;28;20728;-77
2023/07/31 09:20:20;;;;;;;1.15;1.05;;;;;;;19.71;72.80;98873.13;4994723;28;20129;-77
2023/07/31 09:22:51;;;;;;;1.05;0.95;;;;;;;19.75;71.67;98879.78;4995072;28;20061;-77
2023/07/31 09:25:17;;;;;;;2.00;1.08;;;;;;;19.75;71.71;98861.94;4977533;28;20074;-78
2023/07/31 09:27:55;;;;;;;1.58;0.90;;;;;;;19.74;72.56;98868.28;4977426;28;20038;-77
2023/07/31 09:30:21;;;;;;;1.88;0.90;;;;;;;19.79;72.08;98863.28;4977327;28;20517;-77
2023/07/31 09:32:49;;;;;;;1.30;1.00;;;;;;;19.80;71.95;98858.75;4994855;28;20054;-78
2023/07/31 09:35:29;;;;;;;1.15;1.05;;;;;;;19.78;72.80;98866.94;4994622;28;20117;-77
2023/07/31 09:37:59;;;;;;;1.17;1.02;;;;;;;19.83;72.22;98870.94;4994537;28;20108;-77
2023/07/31 09:40:35;;;;;;;1.25;0.90;;;;;;;19.84;71.88;98859.25;4994398;28;20442;-77
2023/07/31 09:43:07;;;;;;;0.93;0.90;;;;;;;19.83;72.54;98858.41;4994594;28;20093;-77
2023/07/31 09:45:38;;;;;;;1.43;1.20;;;;;;;19.86;72.00;98863.44;4994411;28;20133;-77
2023/07/31 09:48:10;;;;;;;1.40;1.00;;;;;;;19.88;72.28;98857.88;4977505;28;20289;-77
2023/07/31 09:50:39;;;;;;;1.13;0.77;;;;;;;19.89;72.37;98860.41;4994125;28;20038;-78
2023/07/31 09:53:07;;;;;;;1.00;0.90;;;;;;;19.90;72.15;98859.41;4977084;28;20050;-77
2023/07/31 09:55:34;;;;;;;0.90;0.90;;;;;;;19.93;72.08;98852.91;4994089;28;20054;-77
2023/07/31 09:58:07;;;;;;;1.65;1.02;;;;;;;19.95;72.43;98866.91;4993999;28;20049;-77
2023/07/31 10:00:34;;;;;;;2.10;0.85;;;;;;;19.97;71.85;98854.22;4994162;28;20042;-77
2023/07/31 10:03:04;;;;;;;1.00;0.90;;;;;;;19.99;71.97;98854.91;4994017;28;20482;-77
2023/07/31 10:05:55;;;;;;;2.15;1.00;;;;;;;19.99;72.37;98862.91;4994396;28;20053;-77
2023/07/31 10:08:29;;;;;;;1.45;1.10;;;;;;;20.03;71.85;98855.38;4994010;28;20185;-77
2023/07/31 10:10:58;;;;;;;1.40;0.93;;;;;;;20.03;72.11;98853.56;4993634;28;20051;-78
2023/07/31 10:13:28;;;;;;;0.88;0.88;;;;;;;20.03;71.82;98845.53;4993728;28;20100;-77
2023/07/31 10:15:58;;;;;;;1.15;1.05;;;;;;;20.03;71.45;98845.53;4993626;28;20069;-77
2023/07/31 10:18:25;;;;;;;1.45;0.90;;;;;;;20.02;71.58;98832.34;4993730;28;20047;-77
2023/07/31 10:20:54;;;;;;;1.00;1.00;;;;;;;20.01;71.67;98841.38;4993782;28;20105;-77
2023/07/31 10:23:23;;;;;;;1.05;0.95;;;;;;;19.98;71.89;98845.22;4993661;28;20050;-78
2023/07/31 10:25:53;;;;;;;3.25;1.10;;;;;;;19.96;72.13;98841.03;4993789;28;20085;-76
2023/07/31 10:28:20;;;;;;;1.20;1.10;;;;;;;19.96;71.83;98844.53;4993619;28;20046;-77
2023/07/31 10:30:49;;;;;;;1.10;0.95;;;;;;;19.94;71.89;98838.53;4993537;28;20054;-77
2023/07/31 10:33:17;;;;;;;1.40;1.30;;;;;;;19.94;71.61;98838.53;4993071;28;20506;-78
2023/07/31 10:35:47;;;;;;;3.95;1.20;;;;;;;19.93;71.99;98836.88;4993772;28;20042;-77
2023/07/31 10:38:14;;;;;;;1.40;1.30;;;;;;;19.92;72.13;98833.34;4976523;28;20077;-77
2023/07/31 10:40:41;;;;;;;1.33;1.23;;;;;;;19.92;72.14;98830.69;4977118;28;20054;-77
2023/07/31 10:43:11;;;;;;;1.20;1.10;;;;;;;19.93;71.96;98843.03;4977063;28;20051;-78
2023/07/31 10:45:41;;;;;;;1.42;1.30;;;;;;;19.93;72.02;98834.19;4993801;28;20478;-77
2023/07/31 10:48:16;;;;;;;1.25;1.15;;;;;;;19.91;72.72;98834.38;4976800;28;20046;-77
2023/07/31 10:50:49;;;;;;;3.28;1.50;;;;;;;19.93;73.07;98835.00;4976747;28;20101;-77
2023/07/31 10:53:25;;;;;;;3.42;1.30;;;;;;;19.96;73.07;98833.84;4993305;28;20126;-78
2023/07/31 10:55:52;;;;;;;1.83;1.30;;;;;;;20.02;72.80;98829.69;4976045;28;20050;-77
2023/07/31 10:58:20;;;;;;;1.40;1.23;;;;;;;20.06;72.77;98823.00;4976028;28;20128;-77
2023/07/31 11:00:47;;;;;;;1.27;1.17;;;;;;;20.09;72.64;98838.69;4993304;28;20054;-78
2023/07/31 11:03:16;;;;;;;1.92;1.40;;;;;;;20.11;72.26;98831.31;4993498;28;20057;-77
2023/07/31 11:05:59;;;;;;;3.92;1.15;;;;;;;20.11;72.88;98834.00;4993257;28;20046;-77
2023/07/31 11:08:27;;;;;;;2.45;1.10;;;;;;;20.18;72.09;98831.47;4993104;28;20049;-78
2023/07/31 11:11:03;;;;;;;1.33;1.20;;;;;;;20.17;72.49;98827.13;4992850;28;20655;-77
2023/07/31 11:13:31;;;;;;;1.83;1.50;;;;;;;20.22;72.21;98823.94;4992660;28;20045;-77
2023/07/31 11:15:57;;;;;;;1.25;1.15;;;;;;;20.24;72.56;98822.78;4990517;28;20109;-76
2023/07/31 11:18:26;;;;;;;1.20;1.10;;;;;;;20.26;72.20;98825.28;4992667;28;20086;-79
2023/07/31 11:20:53;;;;;;;1.35;1.25;;;;;;;20.27;72.00;98817.09;4992711;28;20073;-78
2023/07/31 11:23:21;;;;;;;1.48;1.38;;;;;;;20.28;72.17;98829.44;4992039;28;20054;-76
2023/07/31 11:25:49;;;;;;;2.13;1.33;;;;;;;20.30;72.25;98819.38;4992908;28;20499;-77
2023/07/31 11:28:17;;;;;;;1.60;1.50;;;;;;;20.32;72.33;98819.22;4992552;28;20402;-78
2023/07/31 11:30:45;;;;;;;3.00;1.30;;;;;;;20.35;72.19;98818.03;4975269;28;20046;-78
2023/07/31 11:33:13;;;;;;;2.22;1.60;;;;;;;20.37;72.21;98822.19;4992264;28;20060;-77
2023/07/31 11:35:46;;;;;;;2.58;1.50;;;;;;;20.37;72.47;98824.88;4991904;28;20045;-79
2023/07/31 11:38:24;;;;;;;1.98;1.70;;;;;;;20.38;72.46;98818.53;4992816;28;20042;-77